Time;durP1;ratioP1;P1;durP2;ratioP2;P2;SDS_P1;SDS_P2;PMS_P1;PMS_P2;Temp;Humidity;BMP_temperature;BMP_pressure;BME280_temperature;BME280_humidity;BME280_pressure;Samples;Min_cycle;Max_cycle;Signal;HPM_P1;HPM_P2
2022/06/10 00:00:40;;;;;;;9.85;8.90;;;;;;;20.30;100.00;98521.88;5113321;28;20663;-58
2022/06/10 00:03:10;;;;;;;9.07;8.45;;;;;;;20.31;100.00;98520.94;5113308;28;20199;-58
2022/06/10 00:05:38;;;;;;;10.93;10.10;;;;;;;20.22;100.00;98519.88;5113471;28;20190;-59
2022/06/10 00:08:07;;;;;;;10.27;9.23;;;;;;;20.25;100.00;98513.53;5113506;28;20206;-59
2022/06/10 00:10:35;;;;;;;11.60;10.80;;;;;;;20.27;100.00;98520.34;5113442;28;20205;-60
2022/06/10 00:13:03;;;;;;;13.25;12.07;;;;;;;20.29;100.00;98522.84;5113121;28;20289;-58
2022/06/10 00:15:31;;;;;;;13.55;12.30;;;;;;;20.23;100.00;98521.53;5111001;28;20202;-60
2022/06/10 00:17:59;;;;;;;13.48;12.38;;;;;;;20.05;100.00;98509.09;5113115;28;20254;-59
2022/06/10 00:20:30;;;;;;;13.73;12.73;;;;;;;20.12;100.00;98518.13;5113045;28;20197;-59
2022/06/10 00:22:57;;;;;;;14.30;13.10;;;;;;;20.08;100.00;98519.38;5113090;28;20717;-59
2022/06/10 00:25:25;;;;;;;14.85;13.65;;;;;;;20.17;100.00;98529.97;5112957;28;20194;-59
2022/06/10 00:27:52;;;;;;;13.93;12.85;;;;;;;20.25;100.00;98539.88;5112815;28;20195;-59
2022/06/10 00:30:22;;;;;;;14.35;13.25;;;;;;;20.19;100.00;98541.22;5113168;28;20208;-59
2022/06/10 00:32:49;;;;;;;15.10;13.90;;;;;;;20.09;100.00;98532.41;5112990;28;20646;-59
2022/06/10 00:35:17;;;;;;;14.60;13.13;;;;;;;20.18;100.00;98536.94;5112700;28;20201;-60
2022/06/10 00:37:45;;;;;;;13.77;12.77;;;;;;;20.14;100.00;98537.28;5112553;28;20219;-59
2022/06/10 00:40:16;;;;;;;13.45;12.50;;;;;;;20.04;100.00;98536.41;5112440;28;20215;-59
2022/06/10 00:42:44;;;;;;;13.93;12.75;;;;;;;19.76;100.00;98506.22;5112840;28;20645;-60
2022/06/10 00:45:48;;;;;;;15.00;13.80;;;;;;;19.89;100.00;98528.78;5112560;28;20277;-60
2022/06/10 00:48:19;;;;;;;15.45;14.15;;;;;;;19.77;100.00;98529.78;5112429;28;20186;-58
2022/06/10 00:50:48;;;;;;;16.25;14.85;;;;;;;19.78;100.00;98538.53;5112319;28;20215;-57
2022/06/10 00:53:20;;;;;;;16.33;14.93;;;;;;;19.76;100.00;98527.28;5112518;28;20199;-58
2022/06/10 00:55:50;;;;;;;16.05;14.75;;;;;;;19.90;100.00;98522.56;5112252;28;20769;-60
2022/06/10 00:58:22;;;;;;;16.17;14.63;;;;;;;19.93;100.00;98517.06;5112278;28;20579;-58
2022/06/10 01:00:50;;;;;;;15.80;14.40;;;;;;;20.02;100.00;98514.59;5112153;28;20286;-60
2022/06/10 01:03:17;;;;;;;15.75;14.40;;;;;;;19.95;100.00;98516.94;5112273;28;20194;-60
2022/06/10 01:05:44;;;;;;;16.95;15.13;;;;;;;19.83;100.00;98497.72;5112126;28;20301;-58
2022/06/10 01:08:14;;;;;;;16.65;15.02;;;;;;;19.82;100.00;98500.47;5111895;28;20285;-57
2022/06/10 01:11:03;;;;;;;16.48;15.05;;;;;;;19.87;100.00;98514.91;5112078;28;20285;-58
2022/06/10 01:13:40;;;;;;;16.17;14.77;;;;;;;19.73;100.00;98514.41;5111939;28;20317;-57
2022/06/10 01:16:16;;;;;;;16.42;15.13;;;;;;;19.71;100.00;98511.88;5112221;28;20276;-58
2022/06/10 01:18:56;;;;;;;16.20;14.50;;;;;;;19.55;100.00;98504.38;5111911;28;20691;-60
2022/06/10 01:22:00;;;;;;;16.35;14.85;;;;;;;19.60;100.00;98518.97;5111897;28;20673;-60
2022/06/10 01:24:58;;;;;;;16.13;14.70;;;;;;;19.54;100.00;98518.50;5112034;28;20263;-59
2022/06/10 01:27:50;;;;;;;16.45;15.05;;;;;;;19.65;100.00;98527.31;5111779;28;20198;-59
2022/06/10 01:30:53;;;;;;;15.90;14.45;;;;;;;19.63;100.00;98521.38;5111468;28;20676;-57
2022/06/10 01:33:31;;;;;;;16.08;14.57;;;;;;;19.70;100.00;98533.06;5111579;28;20435;-58
2022/06/10 01:36:04;;;;;;;17.30;15.70;;;;;;;19.73;100.00;98531.03;5111566;28;20279;-58
2022/06/10 01:38:38;;;;;;;16.05;14.75;;;;;;;19.65;100.00;98535.22;5111319;28;20305;-57
2022/06/10 01:41:12;;;;;;;17.27;15.88;;;;;;;19.47;100.00;98522.56;5111382;28;20202;-58
2022/06/10 01:43:46;;;;;;;16.73;15.35;;;;;;;19.59;100.00;98544.47;5111769;28;20693;-58
2022/06/10 01:46:20;;;;;;;17.42;16.02;;;;;;;19.55;100.00;98546.50;5111513;28;20193;-57
2022/06/10 01:48:55;;;;;;;19.17;17.27;;;;;;;19.57;100.00;98536.69;5111278;28;20190;-57
2022/06/10 01:51:28;;;;;;;16.60;15.00;;;;;;;19.64;100.00;98552.00;5111273;28;20205;-57
2022/06/10 01:54:01;;;;;;;17.90;16.08;;;;;;;19.69;100.00;98550.66;5111477;28;20247;-61
2022/06/10 01:56:34;;;;;;;19.60;17.40;;;;;;;19.77;100.00;98553.50;5111211;28;20608;-60
2022/06/10 01:59:06;;;;;;;26.17;23.95;;;;;;;19.84;100.00;98548.59;5111570;28;20214;-58
2022/06/10 02:01:42;;;;;;;29.45;26.45;;;;;;;19.89;100.00;98551.66;5110979;28;20198;-57
2022/06/10 02:04:14;;;;;;;26.73;24.33;;;;;;;19.85;100.00;98545.00;5111280;28;20300;-57
2022/06/10 02:06:48;;;;;;;26.38;23.75;;;;;;;19.75;100.00;98536.16;5111301;28;20648;-57
2022/06/10 02:09:18;;;;;;;21.20;19.33;;;;;;;19.52;100.00;98499.41;5111155;28;20187;-57
2022/06/10 02:11:51;;;;;;;20.13;18.38;;;;;;;19.66;100.00;98529.00;5111055;28;20675;-59
2022/06/10 02:14:26;;;;;;;22.17;20.15;;;;;;;19.53;100.00;98530.00;5110966;28;20285;-58
2022/06/10 02:16:54;;;;;;;24.70;22.10;;;;;;;19.44;100.00;98533.34;5110229;28;20281;-57
2022/06/10 02:19:25;;;;;;;25.30;22.75;;;;;;;19.45;100.00;98540.28;5110943;28;20740;-57
2022/06/10 02:21:54;;;;;;;24.33;21.98;;;;;;;19.46;100.00;98543.75;5110959;28;20203;-57
2022/06/10 02:24:27;;;;;;;24.58;22.20;;;;;;;19.38;100.00;98535.66;5110733;28;20586;-59
2022/06/10 02:26:59;;;;;;;22.77;20.45;;;;;;;19.38;100.00;98531.22;5110722;28;20187;-59
2022/06/10 02:29:32;;;;;;;20.73;18.83;;;;;;;19.33;100.00;98509.69;5105544;28;20190;-59
2022/06/10 02:32:01;;;;;;;21.35;19.25;;;;;;;19.47;100.00;98541.00;5111220;28;20190;-61
2022/06/10 02:34:30;;;;;;;21.85;19.70;;;;;;;19.48;100.00;98544.47;5111076;28;20249;-58
2022/06/10 02:37:06;;;;;;;21.33;19.13;;;;;;;19.48;100.00;98550.59;5110499;28;20247;-57
2022/06/10 02:39:41;;;;;;;21.02;19.20;;;;;;;19.48;100.00;98565.53;5110832;28;20214;-57
2022/06/10 02:42:14;;;;;;;21.35;19.30;;;;;;;19.45;100.00;98553.44;5110928;28;20202;-59
2022/06/10 02:44:50;;;;;;;20.08;18.23;;;;;;;19.42;100.00;98556.31;5110812;28;20228;-60
2022/06/10 02:47:26;;;;;;;19.35;17.33;;;;;;;19.38;100.00;98560.16;5110704;28;20262;-58
2022/06/10 02:49:55;;;;;;;20.38;18.58;;;;;;;19.44;100.00;98575.44;5108904;28;20201;-57
2022/06/10 02:52:25;;;;;;;20.48;18.40;;;;;;;19.45;100.00;98582.38;5109368;28;20198;-58
2022/06/10 02:54:52;;;;;;;20.63;18.65;;;;;;;19.41;100.00;98575.69;5109063;28;20234;-57
2022/06/10 02:57:23;;;;;;;19.88;18.13;;;;;;;19.44;100.00;98575.44;5109380;28;20199;-57
2022/06/10 03:02:50;;;;;;;20.38;18.50;;;;;;;19.40;100.00;98594.25;5103180;28;20239;-60
2022/06/10 03:05:30;;;;;;;20.40;18.50;;;;;;;19.47;100.00;98588.38;5109715;28;20591;-59
2022/06/10 03:08:06;;;;;;;19.98;18.00;;;;;;;19.46;100.00;98591.13;5107643;28;20191;-60
2022/06/10 03:10:40;;;;;;;21.02;19.02;;;;;;;19.46;100.00;98589.31;5107063;28;20194;-59
2022/06/10 03:13:31;;;;;;;18.98;17.20;;;;;;;19.38;100.00;98590.91;5106273;28;20221;-64
2022/06/10 03:16:16;;;;;;;20.63;18.65;;;;;;;19.48;100.00;98587.44;5109970;28;20305;-63
2022/06/10 03:18:56;;;;;;;20.05;18.15;;;;;;;19.54;100.00;98592.22;5109000;27;20222;-64
2022/06/10 03:21:29;;;;;;;19.33;17.58;;;;;;;19.50;100.00;98593.44;5109620;28;20221;-56
2022/06/10 03:24:07;;;;;;;20.45;18.23;;;;;;;19.57;100.00;98597.22;5109302;28;20218;-57
2022/06/10 03:26:42;;;;;;;24.38;19.05;;;;;;;19.71;100.00;98606.66;5109052;28;20222;-60
2022/06/10 03:29:18;;;;;;;20.48;18.63;;;;;;;19.70;100.00;98606.78;5108326;28;20228;-60
2022/06/10 03:31:51;;;;;;;19.65;17.85;;;;;;;19.68;100.00;98600.78;5112113;28;20625;-59
2022/06/10 03:34:25;;;;;;;20.15;18.35;;;;;;;19.80;100.00;98618.25;5111789;27;20213;-60
2022/06/10 03:36:56;;;;;;;19.70;17.77;;;;;;;19.86;100.00;98621.19;5110008;28;20592;-58
2022/06/10 03:39:25;;;;;;;20.77;18.90;;;;;;;19.87;100.00;98622.03;5111310;27;20306;-58
2022/06/10 03:42:00;;;;;;;20.05;18.25;;;;;;;19.94;100.00;98617.97;5111715;28;20674;-57
2022/06/10 03:44:28;;;;;;;20.20;18.15;;;;;;;20.04;100.00;98628.59;5111432;28;20210;-58
2022/06/10 03:46:56;;;;;;;19.83;17.75;;;;;;;20.07;100.00;98631.81;5111920;28;20219;-57
2022/06/10 03:49:30;;;;;;;17.90;16.30;;;;;;;20.06;100.00;98631.94;5111225;27;20632;-57
2022/06/10 03:52:01;;;;;;;19.05;17.20;;;;;;;19.97;100.00;98630.91;5111515;28;20221;-57
2022/06/10 03:54:28;;;;;;;18.77;16.90;;;;;;;19.96;100.00;98634.50;5108342;28;20218;-58
2022/06/10 03:56:55;;;;;;;20.08;16.95;;;;;;;20.00;100.00;98627.16;5111024;28;20214;-58
2022/06/10 03:59:22;;;;;;;20.30;18.50;;;;;;;19.98;100.00;98626.47;5111122;28;20219;-58
2022/06/10 04:01:49;;;;;;;20.08;18.13;;;;;;;19.86;100.00;98628.28;5109052;28;20225;-60
2022/06/10 04:04:16;;;;;;;19.65;17.83;;;;;;;19.82;100.00;98632.97;5111320;28;20313;-59
2022/06/10 04:06:43;;;;;;;19.05;17.27;;;;;;;19.81;100.00;98631.28;5111330;28;20229;-59
2022/06/10 04:09:14;;;;;;;20.38;18.55;;;;;;;19.94;100.00;98628.50;5111704;28;20301;-59
2022/06/10 04:11:40;;;;;;;21.40;18.65;;;;;;;19.94;100.00;98626.72;5111882;28;20596;-59
2022/06/10 04:14:08;;;;;;;19.88;17.98;;;;;;;20.14;100.00;98625.06;5110338;27;20309;-59
2022/06/10 04:16:35;;;;;;;20.08;17.85;;;;;;;20.31;100.00;98597.34;5110459;28;20690;-59
2022/06/10 04:19:01;;;;;;;19.08;17.42;;;;;;;21.01;100.00;98618.59;5110903;28;20214;-59
2022/06/10 04:21:28;;;;;;;18.92;17.30;;;;;;;21.23;100.00;98622.91;5111196;28;20320;-58
2022/06/10 04:23:55;;;;;;;18.95;17.25;;;;;;;21.33;100.00;98628.22;5111431;27;20268;-59
2022/06/10 04:26:24;;;;;;;18.50;16.60;;;;;;;21.61;100.00;98627.47;5111137;27;20219;-59
2022/06/10 04:28:51;;;;;;;21.30;16.42;;;;;;;21.86;100.00;98604.16;5111141;27;20210;-59
2022/06/10 04:31:18;;;;;;;18.25;15.57;;;;;;;22.17;100.00;98641.91;5111103;28;20218;-58
2022/06/10 04:33:45;;;;;;;17.15;15.50;;;;;;;21.86;100.00;98639.34;5111758;28;20221;-59
2022/06/10 04:36:16;;;;;;;22.90;15.43;;;;;;;21.60;100.00;98638.16;5112088;28;20706;-59
2022/06/10 04:38:42;;;;;;;18.13;16.50;;;;;;;21.37;100.00;98637.53;5109948;27;20261;-59
2022/06/10 04:41:11;;;;;;;20.15;16.00;;;;;;;21.31;100.00;98632.81;5110235;28;20691;-59
2022/06/10 04:43:40;;;;;;;18.27;16.50;;;;;;;21.47;100.00;98645.50;5110404;27;20246;-58
2022/06/10 04:46:09;;;;;;;18.48;16.55;;;;;;;21.28;100.00;98641.81;5109939;28;20222;-59
2022/06/10 04:48:36;;;;;;;17.80;16.33;;;;;;;21.18;100.00;98643.59;5109717;28;20214;-59
2022/06/10 04:51:04;;;;;;;18.63;16.85;;;;;;;21.08;100.00;98644.47;5110527;28;20420;-60
2022/06/10 04:53:31;;;;;;;19.55;17.75;;;;;;;20.85;100.00;98641.16;5110292;28;20240;-59
2022/06/10 04:55:58;;;;;;;18.98;17.05;;;;;;;20.73;100.00;98645.66;5111799;28;20230;-59
2022/06/10 04:58:25;;;;;;;20.65;18.30;;;;;;;20.74;100.00;98638.59;5112200;28;20194;-58
2022/06/10 05:00:53;;;;;;;19.75;17.65;;;;;;;20.73;100.00;98640.38;5112101;28;20658;-59
2022/06/10 05:03:20;;;;;;;21.40;17.85;;;;;;;20.70;100.00;98645.91;5112403;28;20277;-58
2022/06/10 05:05:47;;;;;;;19.33;17.33;;;;;;;20.79;100.00;98645.13;5112154;28;20281;-59
2022/06/10 05:08:16;;;;;;;17.85;16.27;;;;;;;20.91;100.00;98649.38;5112308;28;20194;-58
2022/06/10 05:10:43;;;;;;;18.48;16.60;;;;;;;21.10;100.00;98661.03;5112041;28;20196;-58
2022/06/10 05:13:10;;;;;;;19.42;17.52;;;;;;;21.06;100.00;98664.88;5111891;28;20237;-59
2022/06/10 05:15:36;;;;;;;19.30;17.40;;;;;;;20.99;100.00;98664.56;5111833;28;20241;-59
2022/06/10 05:18:06;;;;;;;19.08;17.33;;;;;;;20.99;100.00;98672.50;5111988;28;20619;-59
2022/06/10 05:20:35;;;;;;;19.33;17.67;;;;;;;21.00;100.00;98664.41;5111906;28;20257;-60
2022/06/10 05:23:03;;;;;;;17.25;15.45;;;;;;;21.02;100.00;98669.56;5111698;28;20205;-58
2022/06/10 05:25:30;;;;;;;17.50;15.98;;;;;;;20.88;100.00;98654.91;5111721;28;20202;-59
2022/06/10 05:27:57;;;;;;;17.88;16.40;;;;;;;20.90;100.00;98666.16;5111579;28;20194;-58
2022/06/10 05:30:26;;;;;;;17.08;15.48;;;;;;;20.95;100.00;98676.34;5111596;28;20281;-58
2022/06/10 05:32:54;;;;;;;17.15;15.75;;;;;;;20.94;100.00;98666.75;5111538;28;20194;-59
2022/06/10 05:35:22;;;;;;;17.13;15.52;;;;;;;21.00;100.00;98659.13;5108018;28;20644;-58
2022/06/10 05:37:49;;;;;;;18.10;16.60;;;;;;;21.18;100.00;98677.03;5111507;28;20190;-59
2022/06/10 05:40:18;;;;;;;17.58;16.08;;;;;;;21.20;100.00;98680.41;5110084;28;20666;-60
2022/06/10 05:42:45;;;;;;;16.83;15.23;;;;;;;21.20;100.00;98672.50;5111224;28;20285;-58
2022/06/10 05:45:17;;;;;;;18.52;16.70;;;;;;;21.24;100.00;98681.78;5111075;28;20201;-58
2022/06/10 05:47:46;;;;;;;16.70;15.07;;;;;;;21.39;100.00;98680.47;5111218;28;20289;-59
2022/06/10 05:50:16;;;;;;;15.25;14.02;;;;;;;21.72;100.00;98680.19;5111208;28;20637;-59
2022/06/10 05:52:44;;;;;;;16.45;14.75;;;;;;;21.95;100.00;98682.59;5110064;28;20286;-59
2022/06/10 05:55:12;;;;;;;16.17;14.80;;;;;;;22.19;100.00;98675.16;5109945;28;20226;-59
2022/06/10 05:57:40;;;;;;;16.63;15.27;;;;;;;22.51;100.00;98685.47;5110790;28;20581;-59
2022/06/10 06:00:13;;;;;;;15.52;14.40;;;;;;;22.81;100.00;98695.91;5110426;28;20212;-59
2022/06/10 06:02:40;;;;;;;15.45;13.93;;;;;;;22.80;100.00;98681.00;5110388;28;21413;-58
2022/06/10 06:05:09;;;;;;;16.05;14.45;;;;;;;22.96;100.00;98687.53;5110722;28;20592;-59
2022/06/10 06:07:36;;;;;;;16.08;14.70;;;;;;;23.29;100.00;98675.59;5110723;28;20736;-59
2022/06/10 06:10:06;;;;;;;14.73;13.52;;;;;;;23.80;100.00;98677.78;5110404;28;20186;-57
2022/06/10 06:12:34;;;;;;;14.10;13.10;;;;;;;23.74;100.00;98673.06;5108415;28;20649;-57
2022/06/10 06:15:01;;;;;;;13.35;12.18;;;;;;;23.92;100.00;98678.44;5110539;28;20197;-56
2022/06/10 06:17:28;;;;;;;15.38;12.68;;;;;;;23.56;100.00;98673.03;5110417;28;20194;-59
2022/06/10 06:19:54;;;;;;;15.75;12.07;;;;;;;23.15;100.00;98669.78;5110317;28;20207;-59
2022/06/10 06:22:21;;;;;;;13.82;12.63;;;;;;;22.78;100.00;98676.88;5109960;28;20230;-59
2022/06/10 06:24:48;;;;;;;13.38;12.48;;;;;;;22.71;100.00;98678.34;5110363;28;20289;-59
2022/06/10 06:27:17;;;;;;;14.43;13.00;;;;;;;22.58;100.00;98668.06;5110710;28;20282;-58
2022/06/10 06:29:45;;;;;;;14.40;13.30;;;;;;;22.53;100.00;98690.63;5110851;28;20202;-58
2022/06/10 06:32:12;;;;;;;14.57;13.38;;;;;;;22.44;100.00;98676.44;5110647;28;20205;-58
2022/06/10 06:34:41;;;;;;;16.98;15.02;;;;;;;22.40;100.00;98683.81;5110625;28;20186;-57
2022/06/10 06:37:14;;;;;;;16.55;14.88;;;;;;;22.83;100.00;98689.66;5110839;28;20682;-57
2022/06/10 06:39:41;;;;;;;15.25;13.70;;;;;;;23.02;100.00;98698.41;5110566;28;20771;-58
2022/06/10 06:42:11;;;;;;;15.70;14.15;;;;;;;23.20;100.00;98693.19;5110560;28;20202;-57
2022/06/10 06:44:40;;;;;;;16.75;15.05;;;;;;;23.31;100.00;98698.31;5110695;28;20596;-58
2022/06/10 06:47:11;;;;;;;16.60;15.18;;;;;;;23.11;100.00;98683.47;5110387;28;20202;-58
2022/06/10 06:49:38;;;;;;;16.63;14.93;;;;;;;23.10;100.00;98701.19;5110823;28;20201;-57
2022/06/10 06:52:08;;;;;;;17.83;16.20;;;;;;;22.89;100.00;98681.16;5110413;28;20277;-57
2022/06/10 06:54:35;;;;;;;21.52;17.65;;;;;;;22.82;100.00;98707.34;5110416;28;20194;-57
2022/06/10 06:57:03;;;;;;;21.17;18.88;;;;;;;22.55;100.00;98702.75;5110548;28;20194;-57
2022/06/10 06:59:30;;;;;;;21.13;18.92;;;;;;;22.46;100.00;98706.19;5110247;28;20325;-57
2022/06/10 07:01:59;;;;;;;20.75;18.55;;;;;;;22.34;100.00;98717.91;5110541;28;20285;-57
2022/06/10 07:04:26;;;;;;;20.02;17.92;;;;;;;22.42;100.00;98707.47;5114272;28;20285;-57
2022/06/10 07:06:53;;;;;;;21.25;18.33;;;;;;;22.45;100.00;98707.19;5114496;28;20225;-57
2022/06/10 07:09:20;;;;;;;19.52;17.63;;;;;;;22.36;100.00;98702.72;5114478;28;20198;-59
2022/06/10 07:11:47;;;;;;;19.33;17.30;;;;;;;22.63;100.00;98697.59;5114268;28;20194;-58
2022/06/10 07:14:14;;;;;;;19.20;17.35;;;;;;;23.17;100.00;98683.72;5109026;28;20221;-57
2022/06/10 07:16:41;;;;;;;19.60;17.63;;;;;;;23.49;100.00;98666.59;5092890;28;20261;-59
2022/06/10 07:19:10;;;;;;;18.75;16.75;;;;;;;24.33;100.00;98692.97;5092734;28;20225;-59
2022/06/10 07:21:37;;;;;;;20.00;16.63;;;;;;;24.55;100.00;98688.03;5093133;28;20293;-58
2022/06/10 07:24:05;;;;;;;21.98;17.98;;;;;;;24.81;100.00;98693.41;5093229;28;20225;-59
2022/06/10 07:26:32;;;;;;;18.38;16.75;;;;;;;25.44;98.65;98710.94;5092663;28;20583;-58
2022/06/10 07:29:00;;;;;;;20.45;17.38;;;;;;;25.66;96.24;98703.25;5093417;28;20225;-58
2022/06/10 07:31:27;;;;;;;19.52;17.63;;;;;;;26.03;95.42;98715.38;5092908;28;20226;-59
2022/06/10 07:33:53;;;;;;;20.25;18.45;;;;;;;26.00;93.79;98710.38;5092530;28;20229;-59
2022/06/10 07:36:22;;;;;;;19.40;17.40;;;;;;;26.59;91.27;98706.69;5092661;28;20714;-58
2022/06/10 07:38:49;;;;;;;20.25;18.30;;;;;;;26.90;89.17;98716.69;5093004;28;20223;-59
2022/06/10 07:44:00;;;;;;;19.88;17.92;;;;;;;27.56;87.08;98716.47;5112660;28;20225;-59
2022/06/10 07:46:27;;;;;;;21.75;18.98;;;;;;;27.99;84.49;98708.97;5111660;28;20238;-59
2022/06/10 07:48:54;;;;;;;20.67;18.77;;;;;;;28.96;82.13;98724.38;5111782;28;20273;-59
2022/06/10 07:51:23;;;;;;;20.13;18.33;;;;;;;29.38;77.95;98717.66;5111825;28;20580;-59
2022/06/10 07:53:50;;;;;;;19.80;18.08;;;;;;;28.39;79.10;98721.28;5111983;28;20222;-59
2022/06/10 07:56:20;;;;;;;20.63;18.70;;;;;;;28.23;81.31;98716.03;5111571;28;20277;-58
2022/06/10 07:58:49;;;;;;;20.92;18.65;;;;;;;28.08;81.38;98729.25;5111970;28;20312;-59
2022/06/10 08:01:17;;;;;;;21.52;19.48;;;;;;;27.48;83.42;98721.78;5111662;28;20231;-58
2022/06/10 08:03:43;;;;;;;21.02;19.15;;;;;;;26.91;85.31;98727.16;5111477;28;20313;-58
2022/06/10 08:06:12;;;;;;;21.17;19.05;;;;;;;26.60;86.97;98720.84;5111521;27;20668;-58
2022/06/10 08:08:41;;;;;;;21.90;19.67;;;;;;;26.94;86.42;98720.72;5111981;28;20617;-58
2022/06/10 08:11:08;;;;;;;20.15;18.42;;;;;;;27.87;81.88;98724.53;5111226;28;20725;-59
2022/06/10 08:13:35;;;;;;;19.52;18.00;;;;;;;26.98;81.80;98658.09;5110584;27;20317;-60
2022/06/10 08:16:03;;;;;;;21.08;19.27;;;;;;;27.31;82.56;98738.84;5112593;28;20706;-58
2022/06/10 08:18:31;;;;;;;20.30;18.58;;;;;;;26.63;84.77;98732.00;5113390;28;20206;-58
2022/06/10 08:23:45;;;;;;;21.73;19.48;;;;;;;26.63;86.95;98742.66;5113009;28;20728;-57
2022/06/10 08:26:13;;;;;;;22.08;19.70;;;;;;;27.09;85.10;98749.16;5112975;28;20191;-57
2022/06/10 08:28:43;;;;;;;23.95;19.67;;;;;;;27.09;84.19;98748.31;5112981;28;20696;-58
2022/06/10 08:31:10;;;;;;;21.30;19.33;;;;;;;27.69;81.31;98747.91;5112553;28;20193;-58
2022/06/10 08:33:38;;;;;;;20.02;18.13;;;;;;;28.85;78.65;98752.34;5112685;28;20281;-58
2022/06/10 08:36:06;;;;;;;21.85;19.63;;;;;;;29.73;74.21;98741.00;5112624;28;20198;-59
2022/06/10 08:38:34;;;;;;;21.58;19.42;;;;;;;29.84;72.42;98739.69;5112818;28;20195;-57
2022/06/10 08:41:07;;;;;;;21.05;19.20;;;;;;;29.64;73.12;98733.25;5112727;28;20225;-59
2022/06/10 08:43:46;;;;;;;22.23;19.98;;;;;;;29.69;72.66;98733.50;5112579;28;20194;-59
2022/06/10 08:46:38;;;;;;;22.38;20.30;;;;;;;29.19;74.48;98729.69;5112525;28;20290;-59
2022/06/10 08:49:35;;;;;;;22.95;20.58;;;;;;;29.22;73.84;98735.50;5112632;28;20721;-58
2022/06/10 08:52:12;;;;;;;23.15;20.83;;;;;;;28.58;76.03;98736.81;5112315;28;20195;-58
2022/06/10 08:54:47;;;;;;;21.63;19.73;;;;;;;28.38;74.63;98732.94;5111318;28;20201;-59
2022/06/10 08:57:22;;;;;;;23.65;21.20;;;;;;;28.04;76.67;98741.28;5112098;28;20190;-57
2022/06/10 08:59:50;;;;;;;25.15;22.65;;;;;;;27.61;78.93;98729.28;5112255;28;20670;-57
2022/06/10 09:02:25;;;;;;;26.48;21.73;;;;;;;27.44;81.14;98737.28;5112096;28;20195;-57
2022/06/10 09:04:58;;;;;;;24.52;22.20;;;;;;;26.57;84.06;98735.31;5112094;28;20195;-58
2022/06/10 09:07:29;;;;;;;23.60;21.10;;;;;;;26.19;85.60;98738.50;5112119;28;20190;-58
2022/06/10 09:09:58;;;;;;;24.27;21.58;;;;;;;26.15;86.08;98724.72;5112046;28;20203;-56
2022/06/10 09:12:46;;;;;;;27.23;22.48;;;;;;;26.04;86.68;98725.84;5111890;28;20197;-58
2022/06/10 09:15:16;;;;;;;26.17;21.05;;;;;;;25.61;87.26;98724.19;5109596;28;20198;-58
2022/06/10 09:17:49;;;;;;;25.75;21.73;;;;;;;25.79;88.64;98720.59;5111172;27;20644;-58
2022/06/10 09:20:22;;;;;;;26.73;21.95;;;;;;;25.95;87.70;98721.50;5111383;28;20617;-59
2022/06/10 09:22:55;;;;;;;30.88;22.17;;;;;;;25.84;87.45;98721.81;5106377;28;20682;-56
2022/06/10 09:25:26;;;;;;;27.90;21.27;;;;;;;25.48;88.66;98717.59;5111004;28;20210;-57
2022/06/10 09:27:58;;;;;;;28.25;21.27;;;;;;;25.40;89.23;98717.53;5111423;28;20666;-58
2022/06/10 09:30:31;;;;;;;27.63;20.40;;;;;;;25.44;89.42;98714.41;5111143;28;20226;-59
2022/06/10 09:33:04;;;;;;;28.85;19.90;;;;;;;25.51;88.77;98709.28;5111291;28;20195;-58
2022/06/10 09:35:37;;;;;;;24.48;19.33;;;;;;;25.39;89.02;98718.56;5108976;28;20291;-58
2022/06/10 09:38:14;;;;;;;25.23;19.88;;;;;;;25.72;87.31;98700.97;5111123;28;20285;-58
2022/06/10 09:40:50;;;;;;;23.88;19.52;;;;;;;26.37;84.94;98710.00;5111215;28;20218;-58
2022/06/10 09:43:57;;;;;;;21.17;18.95;;;;;;;26.55;80.62;98700.03;5109724;28;20571;-59
2022/06/10 09:46:39;;;;;;;20.10;18.02;;;;;;;26.62;80.32;98702.88;5109283;28;20198;-59
2022/06/10 09:49:31;;;;;;;20.55;18.45;;;;;;;26.36;82.19;98705.69;5109882;27;20277;-59
2022/06/10 09:52:07;;;;;;;20.50;18.55;;;;;;;26.19;83.14;98706.59;5108283;28;20273;-58
2022/06/10 09:54:50;;;;;;;19.02;17.20;;;;;;;26.18;82.65;98705.78;5107989;28;20641;-58
2022/06/10 09:57:57;;;;;;;19.83;17.85;;;;;;;26.19;82.90;98707.41;5108151;28;20194;-58
2022/06/10 10:00:31;;;;;;;22.17;19.40;;;;;;;26.36;81.83;98708.34;5078616;28;20309;-58
2022/06/10 10:03:13;;;;;;;20.05;17.67;;;;;;;26.40;82.55;98699.03;5109939;28;20610;-59
2022/06/10 10:05:52;;;;;;;18.67;16.65;;;;;;;26.41;81.19;98711.34;5109252;28;20198;-58
2022/06/10 10:08:28;;;;;;;18.10;16.30;;;;;;;26.30;83.00;98703.66;5108510;28;20836;-59
2022/06/10 10:11:01;;;;;;;16.35;14.73;;;;;;;26.40;81.20;98704.38;5109275;28;20190;-60
2022/06/10 10:13:55;;;;;;;15.50;14.07;;;;;;;26.60;80.45;98694.22;5107159;28;20197;-59
2022/06/10 10:16:32;;;;;;;17.60;15.98;;;;;;;26.35;81.60;98658.78;5109170;28;20281;-59
2022/06/10 10:19:15;;;;;;;18.15;16.45;;;;;;;26.37;82.74;98689.56;5110328;28;20726;-59
2022/06/10 10:21:50;;;;;;;22.85;18.70;;;;;;;26.10;85.22;98687.13;5109537;28;20224;-59
2022/06/10 10:24:21;;;;;;;20.55;18.30;;;;;;;26.03;84.46;98680.81;5110273;28;20235;-59
2022/06/10 10:26:51;;;;;;;20.35;17.90;;;;;;;26.02;85.04;98679.97;5107791;28;20201;-57
2022/06/10 10:29:23;;;;;;;20.60;18.40;;;;;;;26.25;84.55;98695.31;5110329;28;20187;-58
2022/06/10 10:31:59;;;;;;;20.58;18.58;;;;;;;25.93;84.83;98691.59;5108042;28;20197;-59
2022/06/10 10:34:29;;;;;;;21.33;19.33;;;;;;;25.84;85.51;98689.06;5110191;28;20252;-58
2022/06/10 10:36:59;;;;;;;19.95;17.90;;;;;;;25.89;85.18;98676.94;5110328;28;20191;-58
2022/06/10 10:39:30;;;;;;;19.63;17.65;;;;;;;26.07;84.77;98682.16;5114180;28;20196;-58
2022/06/10 10:42:01;;;;;;;22.17;19.98;;;;;;;26.26;85.02;98673.03;5114489;28;20214;-58
2022/06/10 10:44:38;;;;;;;23.67;21.27;;;;;;;26.15;86.07;98674.19;5114358;28;20243;-59
2022/06/10 10:47:19;;;;;;;23.90;21.40;;;;;;;26.27;84.86;98667.59;5113237;28;20219;-59
2022/06/10 10:49:51;;;;;;;23.92;21.15;;;;;;;26.34;85.96;98667.75;5113011;28;20187;-59
2022/06/10 10:52:22;;;;;;;22.95;20.67;;;;;;;26.39;83.82;98673.44;5112077;28;20213;-59
2022/06/10 10:54:53;;;;;;;20.92;18.75;;;;;;;26.51;83.79;98665.94;5112952;28;20226;-58
2022/06/10 10:57:29;;;;;;;20.40;18.50;;;;;;;26.40;82.34;98667.09;5113443;28;20198;-58
2022/06/10 11:00:05;;;;;;;20.75;18.83;;;;;;;26.16;83.52;98664.38;5112950;28;20194;-58
2022/06/10 11:02:40;;;;;;;23.67;21.20;;;;;;;26.06;84.81;98659.22;5111591;28;20290;-58
2022/06/10 11:05:35;;;;;;;23.42;21.13;;;;;;;26.03;85.74;98657.72;5111369;28;20281;-57
2022/06/10 11:08:22;;;;;;;22.08;19.83;;;;;;;25.87;84.80;98656.81;5089530;28;20737;-58
2022/06/10 11:10:57;;;;;;;21.67;19.40;;;;;;;25.73;85.42;98662.78;5111276;28;20214;-57
2022/06/10 11:13:34;;;;;;;22.15;19.90;;;;;;;25.36;87.12;98639.16;5113734;28;20194;-58
2022/06/10 11:16:36;;;;;;;23.65;21.23;;;;;;;25.43;87.60;98659.63;5114074;28;20286;-58
2022/06/10 11:19:25;;;;;;;23.58;21.13;;;;;;;25.35;88.68;98658.75;5111872;28;20194;-60
2022/06/10 11:22:09;;;;;;;26.50;23.38;;;;;;;25.25;89.86;98658.88;5111537;28;20214;-58
2022/06/10 11:24:40;;;;;;;27.70;24.80;;;;;;;25.16;90.41;98647.38;5111733;28;20205;-59
2022/06/10 11:27:27;;;;;;;29.42;25.38;;;;;;;25.10;91.72;98655.13;5113236;27;20724;-59
2022/06/10 11:30:02;;;;;;;28.70;25.55;;;;;;;25.04;92.42;98645.13;5111415;28;20578;-59
2022/06/10 11:32:33;;;;;;;30.48;25.25;;;;;;;25.22;90.94;98649.38;5112240;28;20194;-58
2022/06/10 11:35:04;;;;;;;28.52;25.45;;;;;;;25.25;90.17;98627.00;5112973;28;20194;-58
2022/06/10 11:37:36;;;;;;;30.10;25.30;;;;;;;25.42;89.37;98643.81;5111272;28;20187;-58
2022/06/10 11:40:13;;;;;;;33.58;25.15;;;;;;;25.51;89.17;98648.19;5113401;28;20287;-59
2022/06/10 11:42:47;;;;;;;29.40;26.38;;;;;;;25.55;90.51;98638.91;5113432;28;20214;-58